sensor_id;sensor_type;location;lat;lon;timestamp;P1;durP1;ratioP1;P2;durP2;ratioP2
31676;SDS011;18385;51.572;6.578;2023-08-12T00:01:50;16.67;;;5.88;;
31676;SDS011;18385;51.572;6.578;2023-08-12T00:04:16;11.43;;;5.05;;
31676;SDS011;18385;51.572;6.578;2023-08-12T00:06:42;13.00;;;5.00;;
31676;SDS011;18385;51.572;6.578;2023-08-12T00:09:08;13.40;;;5.43;;
31676;SDS011;18385;51.572;6.578;2023-08-12T00:11:35;14.52;;;5.88;;
31676;SDS011;18385;51.572;6.578;2023-08-12T00:14:01;10.57;;;5.68;;
31676;SDS011;18385;51.572;6.578;2023-08-12T00:16:26;11.80;;;5.88;;
31676;SDS011;18385;51.572;6.578;2023-08-12T00:18:52;13.35;;;6.10;;
31676;SDS011;18385;51.572;6.578;2023-08-12T00:21:18;17.27;;;7.43;;
31676;SDS011;18385;51.572;6.578;2023-08-12T00:23:45;15.55;;;5.90;;
31676;SDS011;18385;51.572;6.578;2023-08-12T00:26:12;15.85;;;6.22;;
31676;SDS011;18385;51.572;6.578;2023-08-12T00:28:38;14.80;;;6.53;;
31676;SDS011;18385;51.572;6.578;2023-08-12T00:31:04;14.63;;;7.38;;
31676;SDS011;18385;51.572;6.578;2023-08-12T00:33:29;12.52;;;5.43;;
31676;SDS011;18385;51.572;6.578;2023-08-12T00:35:55;14.57;;;6.20;;
31676;SDS011;18385;51.572;6.578;2023-08-12T00:38:21;14.18;;;6.30;;
31676;SDS011;18385;51.572;6.578;2023-08-12T00:40:47;16.55;;;7.15;;
31676;SDS011;18385;51.572;6.578;2023-08-12T00:43:12;19.60;;;7.00;;
31676;SDS011;18385;51.572;6.578;2023-08-12T00:45:38;10.50;;;5.78;;
31676;SDS011;18385;51.572;6.578;2023-08-12T00:48:04;16.60;;;6.78;;
31676;SDS011;18385;51.572;6.578;2023-08-12T00:50:33;13.05;;;6.43;;
31676;SDS011;18385;51.572;6.578;2023-08-12T00:53:01;12.93;;;7.05;;
31676;SDS011;18385;51.572;6.578;2023-08-12T00:55:27;13.32;;;7.05;;
31676;SDS011;18385;51.572;6.578;2023-08-12T00:57:53;13.30;;;6.38;;
31676;SDS011;18385;51.572;6.578;2023-08-12T01:00:18;13.43;;;6.65;;
31676;SDS011;18385;51.572;6.578;2023-08-12T01:02:46;13.30;;;6.47;;
31676;SDS011;18385;51.572;6.578;2023-08-12T01:05:16;14.80;;;7.57;;
31676;SDS011;18385;51.572;6.578;2023-08-12T01:07:43;15.57;;;7.25;;
31676;SDS011;18385;51.572;6.578;2023-08-12T01:10:10;16.60;;;7.53;;
31676;SDS011;18385;51.572;6.578;2023-08-12T01:15:15;16.95;;;7.88;;
31676;SDS011;18385;51.572;6.578;2023-08-12T01:17:48;17.92;;;7.32;;
31676;SDS011;18385;51.572;6.578;2023-08-12T01:22:49;13.40;;;7.10;;
31676;SDS011;18385;51.572;6.578;2023-08-12T01:25:23;11.95;;;6.93;;
31676;SDS011;18385;51.572;6.578;2023-08-12T01:27:52;17.20;;;6.82;;
31676;SDS011;18385;51.572;6.578;2023-08-12T01:30:18;17.05;;;8.50;;
31676;SDS011;18385;51.572;6.578;2023-08-12T01:32:48;18.95;;;7.55;;
31676;SDS011;18385;51.572;6.578;2023-08-12T01:35:24;14.48;;;6.68;;
31676;SDS011;18385;51.572;6.578;2023-08-12T01:37:55;15.77;;;7.40;;
31676;SDS011;18385;51.572;6.578;2023-08-12T01:40:22;14.52;;;6.78;;
31676;SDS011;18385;51.572;6.578;2023-08-12T01:42:49;14.70;;;7.78;;
31676;SDS011;18385;51.572;6.578;2023-08-12T01:45:17;15.35;;;7.68;;
31676;SDS011;18385;51.572;6.578;2023-08-12T01:47:45;18.13;;;7.93;;
31676;SDS011;18385;51.572;6.578;2023-08-12T01:50:11;18.02;;;7.28;;
31676;SDS011;18385;51.572;6.578;2023-08-12T01:52:37;19.05;;;8.07;;
31676;SDS011;18385;51.572;6.578;2023-08-12T01:55:02;17.15;;;7.35;;
31676;SDS011;18385;51.572;6.578;2023-08-12T01:57:29;16.25;;;7.53;;
31676;SDS011;18385;51.572;6.578;2023-08-12T01:59:54;18.85;;;8.25;;
31676;SDS011;18385;51.572;6.578;2023-08-12T02:02:20;19.63;;;8.07;;
31676;SDS011;18385;51.572;6.578;2023-08-12T02:04:46;20.35;;;8.00;;
31676;SDS011;18385;51.572;6.578;2023-08-12T02:07:11;20.52;;;9.35;;
31676;SDS011;18385;51.572;6.578;2023-08-12T02:09:37;17.90;;;9.55;;
31676;SDS011;18385;51.572;6.578;2023-08-12T02:12:03;35.03;;;10.02;;
31676;SDS011;18385;51.572;6.578;2023-08-12T02:14:29;22.75;;;9.80;;
31676;SDS011;18385;51.572;6.578;2023-08-12T02:16:55;22.92;;;9.85;;
31676;SDS011;18385;51.572;6.578;2023-08-12T02:19:21;23.05;;;8.75;;
31676;SDS011;18385;51.572;6.578;2023-08-12T02:21:46;19.35;;;9.48;;
31676;SDS011;18385;51.572;6.578;2023-08-12T02:24:12;25.88;;;9.80;;
31676;SDS011;18385;51.572;6.578;2023-08-12T02:26:38;26.98;;;11.15;;
31676;SDS011;18385;51.572;6.578;2023-08-12T02:29:04;25.83;;;10.90;;
31676;SDS011;18385;51.572;6.578;2023-08-12T02:31:29;26.95;;;11.88;;
31676;SDS011;18385;51.572;6.578;2023-08-12T02:33:55;33.13;;;12.32;;
31676;SDS011;18385;51.572;6.578;2023-08-12T02:36:21;28.63;;;11.98;;
31676;SDS011;18385;51.572;6.578;2023-08-12T02:38:46;41.88;;;14.32;;
31676;SDS011;18385;51.572;6.578;2023-08-12T02:41:12;39.42;;;13.45;;
31676;SDS011;18385;51.572;6.578;2023-08-12T02:43:38;37.13;;;12.68;;
31676;SDS011;18385;51.572;6.578;2023-08-12T02:46:04;38.42;;;13.93;;
31676;SDS011;18385;51.572;6.578;2023-08-12T02:48:29;31.73;;;12.38;;
31676;SDS011;18385;51.572;6.578;2023-08-12T02:50:55;36.47;;;12.88;;
31676;SDS011;18385;51.572;6.578;2023-08-12T02:53:21;30.70;;;12.95;;
31676;SDS011;18385;51.572;6.578;2023-08-12T02:55:46;36.55;;;14.88;;
31676;SDS011;18385;51.572;6.578;2023-08-12T02:58:12;33.78;;;13.30;;
31676;SDS011;18385;51.572;6.578;2023-08-12T03:00:41;31.08;;;14.07;;
31676;SDS011;18385;51.572;6.578;2023-08-12T03:03:09;32.55;;;13.52;;
31676;SDS011;18385;51.572;6.578;2023-08-12T03:05:35;55.92;;;16.55;;
31676;SDS011;18385;51.572;6.578;2023-08-12T03:08:01;37.92;;;13.82;;
31676;SDS011;18385;51.572;6.578;2023-08-12T03:10:29;43.55;;;14.80;;
31676;SDS011;18385;51.572;6.578;2023-08-12T03:12:55;39.53;;;14.63;;
31676;SDS011;18385;51.572;6.578;2023-08-12T03:15:21;41.75;;;14.60;;
31676;SDS011;18385;51.572;6.578;2023-08-12T03:17:47;31.42;;;13.75;;
31676;SDS011;18385;51.572;6.578;2023-08-12T03:20:13;34.75;;;14.27;;
31676;SDS011;18385;51.572;6.578;2023-08-12T03:22:38;37.42;;;14.07;;
31676;SDS011;18385;51.572;6.578;2023-08-12T03:25:04;35.03;;;13.65;;
31676;SDS011;18385;51.572;6.578;2023-08-12T03:27:31;45.58;;;15.35;;
31676;SDS011;18385;51.572;6.578;2023-08-12T03:29:57;53.45;;;16.05;;
31676;SDS011;18385;51.572;6.578;2023-08-12T03:32:24;43.28;;;16.67;;
31676;SDS011;18385;51.572;6.578;2023-08-12T03:34:51;47.38;;;17.88;;
31676;SDS011;18385;51.572;6.578;2023-08-12T03:37:18;39.75;;;16.70;;
31676;SDS011;18385;51.572;6.578;2023-08-12T03:39:46;47.03;;;17.88;;
31676;SDS011;18385;51.572;6.578;2023-08-12T03:42:12;47.10;;;17.35;;
31676;SDS011;18385;51.572;6.578;2023-08-12T03:44:38;54.85;;;18.98;;
31676;SDS011;18385;51.572;6.578;2023-08-12T03:47:04;56.42;;;20.15;;
31676;SDS011;18385;51.572;6.578;2023-08-12T03:49:36;57.45;;;19.58;;
31676;SDS011;18385;51.572;6.578;2023-08-12T03:52:02;61.80;;;21.40;;
31676;SDS011;18385;51.572;6.578;2023-08-12T03:54:29;59.45;;;20.55;;
31676;SDS011;18385;51.572;6.578;2023-08-12T03:56:55;55.70;;;18.75;;
31676;SDS011;18385;51.572;6.578;2023-08-12T03:59:21;48.30;;;18.95;;
31676;SDS011;18385;51.572;6.578;2023-08-12T04:01:47;55.88;;;19.77;;
31676;SDS011;18385;51.572;6.578;2023-08-12T04:04:13;49.08;;;17.90;;
31676;SDS011;18385;51.572;6.578;2023-08-12T04:06:39;72.65;;;19.98;;
31676;SDS011;18385;51.572;6.578;2023-08-12T04:09:04;46.72;;;17.40;;
31676;SDS011;18385;51.572;6.578;2023-08-12T04:11:30;45.60;;;17.05;;
31676;SDS011;18385;51.572;6.578;2023-08-12T04:13:56;59.75;;;18.88;;
31676;SDS011;18385;51.572;6.578;2023-08-12T04:16:21;50.58;;;17.48;;
31676;SDS011;18385;51.572;6.578;2023-08-12T04:18:48;50.40;;;19.00;;
31676;SDS011;18385;51.572;6.578;2023-08-12T04:21:14;73.63;;;20.27;;
31676;SDS011;18385;51.572;6.578;2023-08-12T04:23:39;58.67;;;20.35;;
31676;SDS011;18385;51.572;6.578;2023-08-12T04:26:06;62.53;;;20.55;;
31676;SDS011;18385;51.572;6.578;2023-08-12T04:28:31;61.00;;;20.30;;
31676;SDS011;18385;51.572;6.578;2023-08-12T04:30:57;46.72;;;18.48;;
31676;SDS011;18385;51.572;6.578;2023-08-12T04:33:24;77.72;;;21.05;;
31676;SDS011;18385;51.572;6.578;2023-08-12T04:35:50;56.28;;;21.52;;
31676;SDS011;18385;51.572;6.578;2023-08-12T04:38:18;53.75;;;20.45;;
31676;SDS011;18385;51.572;6.578;2023-08-12T04:40:45;73.38;;;20.77;;
31676;SDS011;18385;51.572;6.578;2023-08-12T04:43:12;60.03;;;20.50;;
31676;SDS011;18385;51.572;6.578;2023-08-12T04:45:38;52.63;;;17.67;;
31676;SDS011;18385;51.572;6.578;2023-08-12T04:48:05;56.63;;;20.20;;
31676;SDS011;18385;51.572;6.578;2023-08-12T04:50:33;48.50;;;18.83;;
31676;SDS011;18385;51.572;6.578;2023-08-12T04:53:00;55.85;;;19.15;;
31676;SDS011;18385;51.572;6.578;2023-08-12T04:55:26;53.13;;;19.05;;
31676;SDS011;18385;51.572;6.578;2023-08-12T04:57:52;60.00;;;18.25;;
31676;SDS011;18385;51.572;6.578;2023-08-12T05:00:19;44.45;;;16.52;;
31676;SDS011;18385;51.572;6.578;2023-08-12T05:02:45;44.85;;;15.73;;
31676;SDS011;18385;51.572;6.578;2023-08-12T05:05:11;41.58;;;16.48;;
31676;SDS011;18385;51.572;6.578;2023-08-12T05:07:37;37.90;;;16.00;;
31676;SDS011;18385;51.572;6.578;2023-08-12T05:10:02;35.45;;;15.93;;
31676;SDS011;18385;51.572;6.578;2023-08-12T05:12:30;54.05;;;17.02;;
31676;SDS011;18385;51.572;6.578;2023-08-12T05:14:56;58.53;;;16.65;;
31676;SDS011;18385;51.572;6.578;2023-08-12T05:17:22;40.65;;;16.05;;
31676;SDS011;18385;51.572;6.578;2023-08-12T05:19:48;52.80;;;17.63;;
31676;SDS011;18385;51.572;6.578;2023-08-12T05:22:13;54.58;;;16.38;;
31676;SDS011;18385;51.572;6.578;2023-08-12T05:24:39;82.47;;;20.90;;
31676;SDS011;18385;51.572;6.578;2023-08-12T05:27:05;43.25;;;16.30;;
31676;SDS011;18385;51.572;6.578;2023-08-12T05:29:30;45.83;;;17.15;;
31676;SDS011;18385;51.572;6.578;2023-08-12T05:31:56;46.75;;;16.85;;
31676;SDS011;18385;51.572;6.578;2023-08-12T05:34:22;53.38;;;16.67;;
31676;SDS011;18385;51.572;6.578;2023-08-12T05:36:47;64.82;;;18.50;;
31676;SDS011;18385;51.572;6.578;2023-08-12T05:39:13;46.53;;;16.25;;
31676;SDS011;18385;51.572;6.578;2023-08-12T05:41:40;67.05;;;18.20;;
31676;SDS011;18385;51.572;6.578;2023-08-12T05:44:06;45.05;;;15.70;;
31676;SDS011;18385;51.572;6.578;2023-08-12T05:46:32;54.45;;;15.95;;
31676;SDS011;18385;51.572;6.578;2023-08-12T05:48:58;44.58;;;15.00;;
31676;SDS011;18385;51.572;6.578;2023-08-12T05:51:23;51.90;;;16.95;;
31676;SDS011;18385;51.572;6.578;2023-08-12T05:53:49;43.30;;;16.48;;
31676;SDS011;18385;51.572;6.578;2023-08-12T05:56:15;35.58;;;14.90;;
31676;SDS011;18385;51.572;6.578;2023-08-12T05:58:41;41.00;;;15.50;;
31676;SDS011;18385;51.572;6.578;2023-08-12T06:01:06;43.95;;;15.32;;
31676;SDS011;18385;51.572;6.578;2023-08-12T06:03:32;39.00;;;14.23;;
31676;SDS011;18385;51.572;6.578;2023-08-12T06:05:58;44.10;;;16.77;;
31676;SDS011;18385;51.572;6.578;2023-08-12T06:08:23;41.63;;;15.75;;
31676;SDS011;18385;51.572;6.578;2023-08-12T06:10:49;41.05;;;17.13;;
31676;SDS011;18385;51.572;6.578;2023-08-12T06:13:15;46.47;;;17.33;;
31676;SDS011;18385;51.572;6.578;2023-08-12T06:15:41;56.38;;;18.98;;
31676;SDS011;18385;51.572;6.578;2023-08-12T06:18:06;57.88;;;19.50;;
31676;SDS011;18385;51.572;6.578;2023-08-12T06:20:32;65.43;;;21.15;;
31676;SDS011;18385;51.572;6.578;2023-08-12T06:22:58;55.03;;;19.33;;
31676;SDS011;18385;51.572;6.578;2023-08-12T06:25:23;72.65;;;22.92;;
31676;SDS011;18385;51.572;6.578;2023-08-12T06:27:49;57.50;;;20.48;;
31676;SDS011;18385;51.572;6.578;2023-08-12T06:30:14;51.50;;;19.83;;
31676;SDS011;18385;51.572;6.578;2023-08-12T06:32:40;49.63;;;19.30;;
31676;SDS011;18385;51.572;6.578;2023-08-12T06:35:06;47.75;;;18.85;;
31676;SDS011;18385;51.572;6.578;2023-08-12T06:37:33;52.08;;;19.23;;
31676;SDS011;18385;51.572;6.578;2023-08-12T06:39:58;47.95;;;18.58;;
31676;SDS011;18385;51.572;6.578;2023-08-12T06:42:24;43.35;;;16.60;;
31676;SDS011;18385;51.572;6.578;2023-08-12T06:44:54;44.38;;;18.75;;
31676;SDS011;18385;51.572;6.578;2023-08-12T06:47:21;40.95;;;16.52;;
31676;SDS011;18385;51.572;6.578;2023-08-12T06:49:47;40.47;;;16.40;;
31676;SDS011;18385;51.572;6.578;2023-08-12T06:52:13;31.55;;;15.20;;
31676;SDS011;18385;51.572;6.578;2023-08-12T06:54:38;33.33;;;14.68;;
31676;SDS011;18385;51.572;6.578;2023-08-12T06:57:04;30.70;;;14.77;;
31676;SDS011;18385;51.572;6.578;2023-08-12T06:59:30;36.35;;;14.65;;
31676;SDS011;18385;51.572;6.578;2023-08-12T07:01:56;36.38;;;14.95;;
31676;SDS011;18385;51.572;6.578;2023-08-12T07:04:21;41.20;;;15.10;;
31676;SDS011;18385;51.572;6.578;2023-08-12T07:06:47;44.35;;;15.73;;
31676;SDS011;18385;51.572;6.578;2023-08-12T07:09:14;40.53;;;15.80;;
31676;SDS011;18385;51.572;6.578;2023-08-12T07:11:40;37.22;;;15.05;;
31676;SDS011;18385;51.572;6.578;2023-08-12T07:14:05;36.83;;;15.65;;
31676;SDS011;18385;51.572;6.578;2023-08-12T07:16:31;35.10;;;15.30;;
31676;SDS011;18385;51.572;6.578;2023-08-12T07:18:58;34.65;;;15.05;;
31676;SDS011;18385;51.572;6.578;2023-08-12T07:21:23;40.40;;;15.23;;
31676;SDS011;18385;51.572;6.578;2023-08-12T07:23:49;35.33;;;14.55;;
31676;SDS011;18385;51.572;6.578;2023-08-12T07:26:15;31.63;;;14.48;;
31676;SDS011;18385;51.572;6.578;2023-08-12T07:28:41;32.97;;;14.55;;
31676;SDS011;18385;51.572;6.578;2023-08-12T07:31:06;33.92;;;13.40;;
31676;SDS011;18385;51.572;6.578;2023-08-12T07:33:32;31.10;;;12.15;;
31676;SDS011;18385;51.572;6.578;2023-08-12T07:35:58;41.47;;;13.00;;
31676;SDS011;18385;51.572;6.578;2023-08-12T07:38:23;36.55;;;14.05;;
31676;SDS011;18385;51.572;6.578;2023-08-12T07:40:49;36.45;;;14.18;;
31676;SDS011;18385;51.572;6.578;2023-08-12T07:43:15;32.10;;;13.10;;
31676;SDS011;18385;51.572;6.578;2023-08-12T07:45:41;41.55;;;13.00;;
31676;SDS011;18385;51.572;6.578;2023-08-12T07:48:06;31.90;;;12.85;;
31676;SDS011;18385;51.572;6.578;2023-08-12T07:50:32;32.60;;;13.02;;
31676;SDS011;18385;51.572;6.578;2023-08-12T07:52:58;44.40;;;13.57;;
31676;SDS011;18385;51.572;6.578;2023-08-12T07:55:24;33.33;;;12.10;;
31676;SDS011;18385;51.572;6.578;2023-08-12T07:57:49;25.30;;;10.60;;
31676;SDS011;18385;51.572;6.578;2023-08-12T08:00:15;26.45;;;9.95;;
31676;SDS011;18385;51.572;6.578;2023-08-12T08:02:41;26.15;;;9.63;;
31676;SDS011;18385;51.572;6.578;2023-08-12T08:05:07;29.63;;;10.48;;
31676;SDS011;18385;51.572;6.578;2023-08-12T08:07:33;28.70;;;10.30;;
31676;SDS011;18385;51.572;6.578;2023-08-12T08:09:59;29.67;;;9.35;;
31676;SDS011;18385;51.572;6.578;2023-08-12T08:12:24;30.05;;;9.50;;
31676;SDS011;18385;51.572;6.578;2023-08-12T08:14:50;22.20;;;8.18;;
31676;SDS011;18385;51.572;6.578;2023-08-12T08:17:16;17.20;;;7.95;;
31676;SDS011;18385;51.572;6.578;2023-08-12T08:19:41;25.05;;;8.23;;
31676;SDS011;18385;51.572;6.578;2023-08-12T08:22:08;14.93;;;7.13;;
31676;SDS011;18385;51.572;6.578;2023-08-12T08:24:33;21.80;;;7.53;;
31676;SDS011;18385;51.572;6.578;2023-08-12T08:26:59;23.45;;;7.88;;
31676;SDS011;18385;51.572;6.578;2023-08-12T08:29:24;12.23;;;6.00;;
31676;SDS011;18385;51.572;6.578;2023-08-12T08:31:50;8.60;;;4.00;;
31676;SDS011;18385;51.572;6.578;2023-08-12T08:34:16;6.57;;;3.50;;
31676;SDS011;18385;51.572;6.578;2023-08-12T08:36:41;4.55;;;2.83;;
31676;SDS011;18385;51.572;6.578;2023-08-12T08:39:08;3.90;;;2.30;;
31676;SDS011;18385;51.572;6.578;2023-08-12T08:41:36;4.05;;;2.30;;
31676;SDS011;18385;51.572;6.578;2023-08-12T08:44:03;3.03;;;1.75;;
31676;SDS011;18385;51.572;6.578;2023-08-12T08:46:32;4.28;;;1.60;;
31676;SDS011;18385;51.572;6.578;2023-08-12T08:48:59;4.63;;;2.25;;
31676;SDS011;18385;51.572;6.578;2023-08-12T08:51:29;3.25;;;2.20;;
31676;SDS011;18385;51.572;6.578;2023-08-12T08:53:57;5.00;;;2.10;;
31676;SDS011;18385;51.572;6.578;2023-08-12T08:56:23;2.20;;;1.35;;
31676;SDS011;18385;51.572;6.578;2023-08-12T08:58:49;2.58;;;1.40;;
31676;SDS011;18385;51.572;6.578;2023-08-12T09:01:17;4.55;;;2.08;;
31676;SDS011;18385;51.572;6.578;2023-08-12T09:03:47;2.35;;;1.10;;
31676;SDS011;18385;51.572;6.578;2023-08-12T09:06:15;3.22;;;1.40;;
31676;SDS011;18385;51.572;6.578;2023-08-12T09:08:43;2.42;;;1.20;;
31676;SDS011;18385;51.572;6.578;2023-08-12T09:11:10;2.60;;;1.10;;
31676;SDS011;18385;51.572;6.578;2023-08-12T09:13:38;3.35;;;1.23;;
31676;SDS011;18385;51.572;6.578;2023-08-12T09:16:04;3.05;;;1.10;;
31676;SDS011;18385;51.572;6.578;2023-08-12T09:18:30;1.65;;;1.25;;
31676;SDS011;18385;51.572;6.578;2023-08-12T09:20:56;1.85;;;1.10;;
31676;SDS011;18385;51.572;6.578;2023-08-12T09:23:21;3.20;;;1.30;;
31676;SDS011;18385;51.572;6.578;2023-08-12T09:25:47;1.05;;;0.70;;
31676;SDS011;18385;51.572;6.578;2023-08-12T09:28:13;3.88;;;1.10;;
31676;SDS011;18385;51.572;6.578;2023-08-12T09:30:40;2.45;;;1.00;;
31676;SDS011;18385;51.572;6.578;2023-08-12T09:33:06;3.33;;;1.00;;
31676;SDS011;18385;51.572;6.578;2023-08-12T09:35:36;1.98;;;1.08;;
31676;SDS011;18385;51.572;6.578;2023-08-12T09:38:03;4.50;;;1.10;;
31676;SDS011;18385;51.572;6.578;2023-08-12T09:40:35;1.13;;;0.80;;
31676;SDS011;18385;51.572;6.578;2023-08-12T09:43:02;2.20;;;1.10;;
31676;SDS011;18385;51.572;6.578;2023-08-12T09:45:29;2.42;;;0.90;;
31676;SDS011;18385;51.572;6.578;2023-08-12T09:47:55;1.42;;;1.05;;
31676;SDS011;18385;51.572;6.578;2023-08-12T09:50:22;2.70;;;1.40;;
31676;SDS011;18385;51.572;6.578;2023-08-12T09:52:50;2.58;;;1.05;;
31676;SDS011;18385;51.572;6.578;2023-08-12T09:55:17;1.38;;;1.08;;
31676;SDS011;18385;51.572;6.578;2023-08-12T09:57:46;3.08;;;1.05;;
31676;SDS011;18385;51.572;6.578;2023-08-12T10:00:15;1.83;;;1.23;;
31676;SDS011;18385;51.572;6.578;2023-08-12T10:02:43;3.22;;;1.00;;
31676;SDS011;18385;51.572;6.578;2023-08-12T10:05:11;2.17;;;1.10;;
31676;SDS011;18385;51.572;6.578;2023-08-12T10:07:41;2.35;;;1.10;;
31676;SDS011;18385;51.572;6.578;2023-08-12T10:10:09;2.88;;;1.05;;
31676;SDS011;18385;51.572;6.578;2023-08-12T10:12:35;2.25;;;1.02;;
31676;SDS011;18385;51.572;6.578;2023-08-12T10:15:03;3.28;;;1.17;;
31676;SDS011;18385;51.572;6.578;2023-08-12T10:17:33;3.45;;;1.77;;
31676;SDS011;18385;51.572;6.578;2023-08-12T10:20:03;1.73;;;1.13;;
31676;SDS011;18385;51.572;6.578;2023-08-12T10:22:30;2.85;;;1.02;;
31676;SDS011;18385;51.572;6.578;2023-08-12T10:24:59;1.58;;;0.80;;
31676;SDS011;18385;51.572;6.578;2023-08-12T10:27:28;1.52;;;1.00;;
31676;SDS011;18385;51.572;6.578;2023-08-12T10:29:57;1.65;;;1.08;;
31676;SDS011;18385;51.572;6.578;2023-08-12T10:32:24;3.15;;;1.15;;
31676;SDS011;18385;51.572;6.578;2023-08-12T10:34:58;1.42;;;1.00;;
31676;SDS011;18385;51.572;6.578;2023-08-12T10:37:47;2.33;;;1.10;;
31676;SDS011;18385;51.572;6.578;2023-08-12T10:40:25;3.10;;;1.35;;
31676;SDS011;18385;51.572;6.578;2023-08-12T10:46:00;2.97;;;1.20;;
31676;SDS011;18385;51.572;6.578;2023-08-12T10:48:26;2.13;;;1.30;;
31676;SDS011;18385;51.572;6.578;2023-08-12T10:50:55;3.55;;;0.95;;
31676;SDS011;18385;51.572;6.578;2023-08-12T10:53:33;1.80;;;0.90;;
31676;SDS011;18385;51.572;6.578;2023-08-12T10:56:04;2.10;;;1.13;;
31676;SDS011;18385;51.572;6.578;2023-08-12T10:58:45;1.63;;;1.20;;
31676;SDS011;18385;51.572;6.578;2023-08-12T11:01:18;2.10;;;1.40;;
31676;SDS011;18385;51.572;6.578;2023-08-12T11:03:45;2.58;;;1.33;;
31676;SDS011;18385;51.572;6.578;2023-08-12T11:06:11;3.20;;;1.80;;
31676;SDS011;18385;51.572;6.578;2023-08-12T11:08:45;2.78;;;1.88;;
31676;SDS011;18385;51.572;6.578;2023-08-12T11:11:24;3.80;;;2.17;;
31676;SDS011;18385;51.572;6.578;2023-08-12T11:13:57;4.20;;;2.30;;
31676;SDS011;18385;51.572;6.578;2023-08-12T11:16:36;3.25;;;2.60;;
31676;SDS011;18385;51.572;6.578;2023-08-12T11:19:02;3.40;;;2.70;;
31676;SDS011;18385;51.572;6.578;2023-08-12T11:21:29;4.07;;;2.65;;
31676;SDS011;18385;51.572;6.578;2023-08-12T11:23:57;4.13;;;3.05;;
31676;SDS011;18385;51.572;6.578;2023-08-12T11:26:24;3.85;;;3.00;;
31676;SDS011;18385;51.572;6.578;2023-08-12T11:28:50;4.22;;;3.13;;
31676;SDS011;18385;51.572;6.578;2023-08-12T11:31:18;3.17;;;2.75;;
31676;SDS011;18385;51.572;6.578;2023-08-12T11:33:46;4.88;;;3.00;;
31676;SDS011;18385;51.572;6.578;2023-08-12T11:36:16;4.10;;;3.22;;
31676;SDS011;18385;51.572;6.578;2023-08-12T11:38:48;4.07;;;3.13;;
31676;SDS011;18385;51.572;6.578;2023-08-12T11:41:16;4.30;;;3.30;;
31676;SDS011;18385;51.572;6.578;2023-08-12T11:43:43;4.05;;;2.58;;
31676;SDS011;18385;51.572;6.578;2023-08-12T11:46:09;6.63;;;4.10;;
31676;SDS011;18385;51.572;6.578;2023-08-12T11:48:34;5.05;;;3.70;;
31676;SDS011;18385;51.572;6.578;2023-08-12T11:51:06;5.78;;;4.38;;
31676;SDS011;18385;51.572;6.578;2023-08-12T11:53:32;6.00;;;3.65;;
31676;SDS011;18385;51.572;6.578;2023-08-12T11:55:58;4.22;;;3.58;;
31676;SDS011;18385;51.572;6.578;2023-08-12T11:58:24;5.55;;;3.72;;
31676;SDS011;18385;51.572;6.578;2023-08-12T12:00:49;3.80;;;3.22;;
31676;SDS011;18385;51.572;6.578;2023-08-12T12:03:16;4.35;;;3.78;;
31676;SDS011;18385;51.572;6.578;2023-08-12T12:05:46;4.28;;;3.00;;
31676;SDS011;18385;51.572;6.578;2023-08-12T12:08:13;2.97;;;2.60;;
31676;SDS011;18385;51.572;6.578;2023-08-12T12:10:39;3.40;;;2.05;;
31676;SDS011;18385;51.572;6.578;2023-08-12T12:13:06;2.50;;;2.00;;
31676;SDS011;18385;51.572;6.578;2023-08-12T12:15:42;3.13;;;2.13;;
31676;SDS011;18385;51.572;6.578;2023-08-12T12:18:13;2.85;;;2.35;;
31676;SDS011;18385;51.572;6.578;2023-08-12T12:20:53;3.35;;;2.42;;
31676;SDS011;18385;51.572;6.578;2023-08-12T12:23:21;3.83;;;2.53;;
31676;SDS011;18385;51.572;6.578;2023-08-12T12:25:47;5.10;;;2.40;;
31676;SDS011;18385;51.572;6.578;2023-08-12T12:28:13;4.03;;;2.50;;
31676;SDS011;18385;51.572;6.578;2023-08-12T12:30:38;4.60;;;2.80;;
31676;SDS011;18385;51.572;6.578;2023-08-12T12:33:04;3.30;;;2.25;;
31676;SDS011;18385;51.572;6.578;2023-08-12T12:35:30;2.10;;;1.90;;
31676;SDS011;18385;51.572;6.578;2023-08-12T12:37:56;1.73;;;1.50;;
31676;SDS011;18385;51.572;6.578;2023-08-12T12:40:27;2.58;;;1.30;;
31676;SDS011;18385;51.572;6.578;2023-08-12T12:43:02;1.73;;;1.00;;
31676;SDS011;18385;51.572;6.578;2023-08-12T12:45:33;1.20;;;1.00;;
31676;SDS011;18385;51.572;6.578;2023-08-12T12:47:59;1.42;;;0.85;;
31676;SDS011;18385;51.572;6.578;2023-08-12T12:50:29;1.10;;;0.60;;
31676;SDS011;18385;51.572;6.578;2023-08-12T12:52:55;1.42;;;0.52;;
31676;SDS011;18385;51.572;6.578;2023-08-12T12:55:20;0.93;;;0.50;;
31676;SDS011;18385;51.572;6.578;2023-08-12T12:57:49;2.05;;;0.52;;
31676;SDS011;18385;51.572;6.578;2023-08-12T13:00:15;0.77;;;0.50;;
31676;SDS011;18385;51.572;6.578;2023-08-12T13:02:41;0.70;;;0.50;;
31676;SDS011;18385;51.572;6.578;2023-08-12T13:05:07;0.80;;;0.45;;
31676;SDS011;18385;51.572;6.578;2023-08-12T13:07:34;0.70;;;0.50;;
31676;SDS011;18385;51.572;6.578;2023-08-12T13:09:59;2.00;;;0.70;;
31676;SDS011;18385;51.572;6.578;2023-08-12T13:12:25;0.93;;;0.60;;
31676;SDS011;18385;51.572;6.578;2023-08-12T13:14:51;3.47;;;0.70;;
31676;SDS011;18385;51.572;6.578;2023-08-12T13:17:16;0.82;;;0.60;;
31676;SDS011;18385;51.572;6.578;2023-08-12T13:19:42;2.00;;;1.00;;
31676;SDS011;18385;51.572;6.578;2023-08-12T13:22:08;1.40;;;0.60;;
31676;SDS011;18385;51.572;6.578;2023-08-12T13:24:33;1.05;;;0.47;;
31676;SDS011;18385;51.572;6.578;2023-08-12T13:26:59;1.80;;;0.70;;
31676;SDS011;18385;51.572;6.578;2023-08-12T13:29:24;1.27;;;0.60;;
31676;SDS011;18385;51.572;6.578;2023-08-12T13:31:51;1.40;;;0.70;;
31676;SDS011;18385;51.572;6.578;2023-08-12T13:34:17;1.67;;;0.60;;
31676;SDS011;18385;51.572;6.578;2023-08-12T13:36:42;2.10;;;0.75;;
31676;SDS011;18385;51.572;6.578;2023-08-12T13:39:08;2.83;;;0.70;;
31676;SDS011;18385;51.572;6.578;2023-08-12T13:41:34;1.13;;;0.35;;
31676;SDS011;18385;51.572;6.578;2023-08-12T13:43:59;1.23;;;0.50;;
31676;SDS011;18385;51.572;6.578;2023-08-12T13:46:25;2.53;;;0.60;;
31676;SDS011;18385;51.572;6.578;2023-08-12T13:48:51;2.08;;;0.30;;
31676;SDS011;18385;51.572;6.578;2023-08-12T13:51:18;4.25;;;0.73;;
31676;SDS011;18385;51.572;6.578;2023-08-12T13:53:43;2.50;;;0.60;;
31676;SDS011;18385;51.572;6.578;2023-08-12T13:56:09;2.78;;;0.50;;
31676;SDS011;18385;51.572;6.578;2023-08-12T13:58:35;1.35;;;0.50;;
31676;SDS011;18385;51.572;6.578;2023-08-12T14:01:00;2.15;;;0.82;;
31676;SDS011;18385;51.572;6.578;2023-08-12T14:03:26;3.65;;;0.50;;
31676;SDS011;18385;51.572;6.578;2023-08-12T14:05:52;1.75;;;0.32;;
31676;SDS011;18385;51.572;6.578;2023-08-12T14:08:17;1.30;;;0.40;;
31676;SDS011;18385;51.572;6.578;2023-08-12T14:10:45;3.33;;;0.40;;
31676;SDS011;18385;51.572;6.578;2023-08-12T14:13:11;1.13;;;0.52;;
31676;SDS011;18385;51.572;6.578;2023-08-12T14:15:36;2.13;;;0.50;;
31676;SDS011;18385;51.572;6.578;2023-08-12T14:18:02;2.05;;;0.70;;
31676;SDS011;18385;51.572;6.578;2023-08-12T14:20:28;2.65;;;0.60;;
31676;SDS011;18385;51.572;6.578;2023-08-12T14:22:54;0.95;;;0.40;;
31676;SDS011;18385;51.572;6.578;2023-08-12T14:25:19;1.25;;;0.45;;
31676;SDS011;18385;51.572;6.578;2023-08-12T14:27:45;2.05;;;0.60;;
31676;SDS011;18385;51.572;6.578;2023-08-12T14:30:11;2.67;;;1.00;;
31676;SDS011;18385;51.572;6.578;2023-08-12T14:32:37;1.88;;;0.45;;
31676;SDS011;18385;51.572;6.578;2023-08-12T14:35:03;2.78;;;0.73;;
31676;SDS011;18385;51.572;6.578;2023-08-12T14:37:30;3.50;;;1.00;;
31676;SDS011;18385;51.572;6.578;2023-08-12T14:39:56;2.50;;;0.70;;
31676;SDS011;18385;51.572;6.578;2023-08-12T14:42:21;3.72;;;0.90;;